Hovedside
METAR-TAF:

METAR-TAF

Lufthavner :

Molde, Norge

Molde lufthavn

breddegrad: 62-45N, lengdegrad: 007-16E, høyde over havet: 0 m

Gjeldene værobservasjon

Denne rapporten ble laget for 37 minutter siden, klokken 18:20 UTC
Vind 7 kt fra Nord-nordøst
Temperatur 13°C
Luftfuktighet 82%
Trykk 1022 hPa
Sikt 10 km eller mer
Få skyer i en høyde av 5000 ft
Brutte skyer i en høyde av 6500 ft
lett regn

METAR: ENML 221820Z 03007KT 9999 -RA FEW050 BKN065 13/10 Q1022

Tid: 20:57 (18:57 UTC)

Varsel

Denne rapporten ble laget for 1 time og 57 minutter siden, klokken 17:00 UTC
Varsel gyldig fra 22. klokken 18 UTC til 22. klokken 22 UTC
Vind 7 kt fra Øst-nordøst
Sikt 10 km eller mer
Få skyer i en høyde av 4000 ft
Brutte skyer i en høyde av 7000 ft

TAF: ENML 221700Z 2218/2222 07007KT 9999 FEW040 BKN070

Værobservasjoner og værvarsel for over 4000 flyplasser (METAR- og TAF-rapporter).

Tilgjengelige stasjoner er representert av de røde og gule prikkene på kartet.

Hold musepekeren over prikken for å se navnet på stasjonen.

Klikk så for å se værobservasjoner og -varsler.

For å forandre kartet kan du klikke på den grønne knappen med svart kryss for å zoome inn, på den grønne knappen med strek for å zoome ut, eller på de grønne pilene for å se tilstøtende kart.


METAR-TAF: